Terminal Aerodrome Forecast
Issued by NWS

Home | Current Version | Previous Version | Text Only | Print | Product List | Glossary On
Versions: 1 2 3 4 5 6 7 8 9 10 11 12 13 14 15 16 17 18 19 20 21 22 23 24 25
000
FTUS42 KFFC 282335
TAFFTY
TAF
KFTY 282335Z 2900/2924 11003KT P6SM VCSH SCT015 BKN060
     FM290200 00000KT P6SM FEW008 SCT015 BKN120
     FM290500 09003KT 4SM BR FEW008 SCT015
     FM290900 10003KT 4SM BR SCT008 BKN015
     FM291600 13004KT P6SM BKN025
     FM291800 13005KT P6SM SCT035 PROB30 2919/2922 5SM TSRA
      BKN025CB=

USA.gov is the U.S. government's official web portal to all federal, state and local government web resources and services.